X  Fechar Dados meteorológicos de METAR da aviação        LGTS Thessaloniki Macedonia International
Temperatura
9°C Temperatura
9°C Ponto de orvalho
100% Umidade



Vento
0 M/S
0 MPH
0 KM/H
0 NÓS



Calmo
N
Condições atuais

Partly Cloudy with Mist and Fog Parcialmente nublado , Névoa e nevoeiro
Pressão 1017 (hPa) - 30.03 (inHg)
Visibilidade 2 (milha) - 4 (km)
Aeroporto
Código do aeroporto LGTS

Localização: Thessaloniki Macedonia International
Distância: 85 (km)

Metar:
METAR LGTS 230720Z 00000KT 4000 2000SE BR SCT005 09/09 Q1017 BECMG 5000 BR FEW010

Hora: 23-02-2024 09:20 EET